sensor_id;sensor_type;location;lat;lon;timestamp;P1;durP1;ratioP1;P2;durP2;ratioP2
22129;SDS011;11231;50.746;4.272;2023-08-20T00:00:36;24.20;;;4.80;;
22129;SDS011;11231;50.746;4.272;2023-08-20T00:03:11;13.77;;;3.70;;
22129;SDS011;11231;50.746;4.272;2023-08-20T00:05:38;19.10;;;4.13;;
22129;SDS011;11231;50.746;4.272;2023-08-20T00:08:05;16.90;;;4.27;;
22129;SDS011;11231;50.746;4.272;2023-08-20T00:10:31;16.37;;;3.53;;
22129;SDS011;11231;50.746;4.272;2023-08-20T00:12:57;15.73;;;3.63;;
22129;SDS011;11231;50.746;4.272;2023-08-20T00:15:23;19.73;;;3.73;;
22129;SDS011;11231;50.746;4.272;2023-08-20T00:17:51;18.27;;;3.90;;
22129;SDS011;11231;50.746;4.272;2023-08-20T00:20:18;15.70;;;3.60;;
22129;SDS011;11231;50.746;4.272;2023-08-20T00:22:45;13.47;;;3.40;;
22129;SDS011;11231;50.746;4.272;2023-08-20T00:25:15;16.37;;;4.07;;
22129;SDS011;11231;50.746;4.272;2023-08-20T00:27:42;17.00;;;3.50;;
22129;SDS011;11231;50.746;4.272;2023-08-20T00:30:09;17.93;;;3.50;;
22129;SDS011;11231;50.746;4.272;2023-08-20T00:32:36;19.57;;;3.40;;
22129;SDS011;11231;50.746;4.272;2023-08-20T00:35:02;15.17;;;3.27;;
22129;SDS011;11231;50.746;4.272;2023-08-20T00:37:28;13.53;;;3.27;;
22129;SDS011;11231;50.746;4.272;2023-08-20T00:39:54;12.40;;;3.00;;
22129;SDS011;11231;50.746;4.272;2023-08-20T00:42:20;12.03;;;3.47;;
22129;SDS011;11231;50.746;4.272;2023-08-20T00:44:46;19.10;;;3.90;;
22129;SDS011;11231;50.746;4.272;2023-08-20T00:47:15;18.17;;;3.40;;
22129;SDS011;11231;50.746;4.272;2023-08-20T00:49:43;15.23;;;3.60;;
22129;SDS011;11231;50.746;4.272;2023-08-20T00:52:11;13.03;;;3.60;;
22129;SDS011;11231;50.746;4.272;2023-08-20T00:54:41;16.17;;;3.30;;
22129;SDS011;11231;50.746;4.272;2023-08-20T00:57:10;13.23;;;3.23;;
22129;SDS011;11231;50.746;4.272;2023-08-20T00:59:40;17.50;;;3.67;;
22129;SDS011;11231;50.746;4.272;2023-08-20T01:02:06;16.00;;;3.50;;
22129;SDS011;11231;50.746;4.272;2023-08-20T01:04:32;15.93;;;3.20;;
22129;SDS011;11231;50.746;4.272;2023-08-20T01:12:27;14.67;;;3.53;;
22129;SDS011;11231;50.746;4.272;2023-08-20T01:14:54;14.70;;;2.97;;
22129;SDS011;11231;50.746;4.272;2023-08-20T01:17:20;14.80;;;2.97;;
22129;SDS011;11231;50.746;4.272;2023-08-20T01:19:45;12.60;;;3.20;;
22129;SDS011;11231;50.746;4.272;2023-08-20T01:30:58;15.77;;;3.40;;
22129;SDS011;11231;50.746;4.272;2023-08-20T01:33:26;12.60;;;3.23;;
22129;SDS011;11231;50.746;4.272;2023-08-20T01:35:53;14.47;;;3.30;;
22129;SDS011;11231;50.746;4.272;2023-08-20T01:38:19;16.20;;;3.27;;
22129;SDS011;11231;50.746;4.272;2023-08-20T01:40:45;15.73;;;3.60;;
22129;SDS011;11231;50.746;4.272;2023-08-20T01:43:14;14.17;;;3.47;;
22129;SDS011;11231;50.746;4.272;2023-08-20T01:45:40;14.00;;;3.57;;
22129;SDS011;11231;50.746;4.272;2023-08-20T01:48:06;13.63;;;3.73;;
22129;SDS011;11231;50.746;4.272;2023-08-20T01:50:33;13.20;;;3.00;;
22129;SDS011;11231;50.746;4.272;2023-08-20T01:53:00;12.63;;;3.10;;
22129;SDS011;11231;50.746;4.272;2023-08-20T01:55:28;20.37;;;3.70;;
22129;SDS011;11231;50.746;4.272;2023-08-20T01:57:54;16.40;;;3.60;;
22129;SDS011;11231;50.746;4.272;2023-08-20T02:00:20;20.50;;;4.53;;
22129;SDS011;11231;50.746;4.272;2023-08-20T02:02:45;17.23;;;3.63;;
22129;SDS011;11231;50.746;4.272;2023-08-20T02:05:11;17.10;;;3.33;;
22129;SDS011;11231;50.746;4.272;2023-08-20T02:07:37;14.63;;;3.70;;
22129;SDS011;11231;50.746;4.272;2023-08-20T02:10:03;15.50;;;3.90;;
22129;SDS011;11231;50.746;4.272;2023-08-20T02:12:30;16.80;;;3.53;;
22129;SDS011;11231;50.746;4.272;2023-08-20T02:14:56;14.33;;;3.30;;
22129;SDS011;11231;50.746;4.272;2023-08-20T02:17:22;17.00;;;3.40;;
22129;SDS011;11231;50.746;4.272;2023-08-20T02:19:48;17.60;;;3.67;;
22129;SDS011;11231;50.746;4.272;2023-08-20T02:22:14;14.70;;;3.60;;
22129;SDS011;11231;50.746;4.272;2023-08-20T02:24:40;17.40;;;3.67;;
22129;SDS011;11231;50.746;4.272;2023-08-20T02:27:07;16.07;;;3.43;;
22129;SDS011;11231;50.746;4.272;2023-08-20T02:29:32;18.40;;;3.67;;
22129;SDS011;11231;50.746;4.272;2023-08-20T02:31:58;12.00;;;3.53;;
22129;SDS011;11231;50.746;4.272;2023-08-20T02:34:24;17.50;;;3.33;;
22129;SDS011;11231;50.746;4.272;2023-08-20T02:36:50;10.13;;;2.93;;
22129;SDS011;11231;50.746;4.272;2023-08-20T02:39:15;19.00;;;3.67;;
22129;SDS011;11231;50.746;4.272;2023-08-20T02:41:42;14.10;;;3.57;;
22129;SDS011;11231;50.746;4.272;2023-08-20T02:44:08;13.17;;;3.50;;
22129;SDS011;11231;50.746;4.272;2023-08-20T02:46:37;12.80;;;3.87;;
22129;SDS011;11231;50.746;4.272;2023-08-20T02:49:03;15.77;;;3.70;;
22129;SDS011;11231;50.746;4.272;2023-08-20T02:51:29;15.70;;;3.33;;
22129;SDS011;11231;50.746;4.272;2023-08-20T02:53:55;12.30;;;3.40;;
22129;SDS011;11231;50.746;4.272;2023-08-20T02:56:20;11.57;;;3.73;;
22129;SDS011;11231;50.746;4.272;2023-08-20T02:58:46;19.27;;;4.17;;
22129;SDS011;11231;50.746;4.272;2023-08-20T03:01:22;20.57;;;4.30;;
22129;SDS011;11231;50.746;4.272;2023-08-20T03:03:50;19.67;;;4.10;;
22129;SDS011;11231;50.746;4.272;2023-08-20T03:06:19;16.27;;;3.90;;
22129;SDS011;11231;50.746;4.272;2023-08-20T03:08:45;16.13;;;3.90;;
22129;SDS011;11231;50.746;4.272;2023-08-20T03:11:11;13.47;;;3.47;;
22129;SDS011;11231;50.746;4.272;2023-08-20T03:13:37;17.73;;;3.90;;
22129;SDS011;11231;50.746;4.272;2023-08-20T03:16:02;18.93;;;3.73;;
22129;SDS011;11231;50.746;4.272;2023-08-20T03:18:29;18.57;;;3.90;;
22129;SDS011;11231;50.746;4.272;2023-08-20T03:20:55;16.77;;;3.77;;
22129;SDS011;11231;50.746;4.272;2023-08-20T03:23:21;15.13;;;3.50;;
22129;SDS011;11231;50.746;4.272;2023-08-20T03:25:48;14.90;;;3.87;;
22129;SDS011;11231;50.746;4.272;2023-08-20T03:28:14;11.67;;;3.50;;
22129;SDS011;11231;50.746;4.272;2023-08-20T03:30:40;13.70;;;3.87;;
22129;SDS011;11231;50.746;4.272;2023-08-20T03:33:06;15.63;;;4.03;;
22129;SDS011;11231;50.746;4.272;2023-08-20T03:35:34;14.23;;;3.30;;
22129;SDS011;11231;50.746;4.272;2023-08-20T03:38:00;16.87;;;3.70;;
22129;SDS011;11231;50.746;4.272;2023-08-20T03:40:27;14.93;;;3.63;;
22129;SDS011;11231;50.746;4.272;2023-08-20T03:42:53;14.33;;;3.83;;
22129;SDS011;11231;50.746;4.272;2023-08-20T03:45:19;19.47;;;4.47;;
22129;SDS011;11231;50.746;4.272;2023-08-20T03:47:44;12.97;;;4.07;;
22129;SDS011;11231;50.746;4.272;2023-08-20T03:50:12;14.50;;;4.00;;
22129;SDS011;11231;50.746;4.272;2023-08-20T03:52:37;13.87;;;3.97;;
22129;SDS011;11231;50.746;4.272;2023-08-20T03:55:04;14.17;;;4.23;;
22129;SDS011;11231;50.746;4.272;2023-08-20T03:57:32;12.93;;;3.60;;
22129;SDS011;11231;50.746;4.272;2023-08-20T03:59:57;12.87;;;3.63;;
22129;SDS011;11231;50.746;4.272;2023-08-20T04:02:23;13.77;;;3.97;;
22129;SDS011;11231;50.746;4.272;2023-08-20T04:04:49;14.23;;;3.93;;
22129;SDS011;11231;50.746;4.272;2023-08-20T04:07:15;17.30;;;4.23;;
22129;SDS011;11231;50.746;4.272;2023-08-20T04:09:40;16.60;;;4.30;;
22129;SDS011;11231;50.746;4.272;2023-08-20T04:12:07;9.37;;;3.93;;
22129;SDS011;11231;50.746;4.272;2023-08-20T04:14:36;13.70;;;3.63;;
22129;SDS011;11231;50.746;4.272;2023-08-20T04:17:01;13.20;;;3.83;;
22129;SDS011;11231;50.746;4.272;2023-08-20T04:19:27;10.07;;;3.47;;
22129;SDS011;11231;50.746;4.272;2023-08-20T04:21:53;16.00;;;4.13;;
22129;SDS011;11231;50.746;4.272;2023-08-20T04:24:18;13.50;;;3.60;;
22129;SDS011;11231;50.746;4.272;2023-08-20T04:26:45;15.13;;;3.80;;
22129;SDS011;11231;50.746;4.272;2023-08-20T04:29:12;12.60;;;4.13;;
22129;SDS011;11231;50.746;4.272;2023-08-20T04:31:38;14.30;;;4.00;;
22129;SDS011;11231;50.746;4.272;2023-08-20T04:34:07;13.43;;;3.90;;
22129;SDS011;11231;50.746;4.272;2023-08-20T04:36:41;13.40;;;3.90;;
22129;SDS011;11231;50.746;4.272;2023-08-20T04:39:06;16.50;;;4.10;;
22129;SDS011;11231;50.746;4.272;2023-08-20T04:41:35;14.13;;;4.00;;
22129;SDS011;11231;50.746;4.272;2023-08-20T04:44:02;19.77;;;4.27;;
22129;SDS011;11231;50.746;4.272;2023-08-20T04:46:28;13.63;;;3.43;;
22129;SDS011;11231;50.746;4.272;2023-08-20T04:48:54;14.33;;;3.93;;
22129;SDS011;11231;50.746;4.272;2023-08-20T04:51:20;15.20;;;3.73;;
22129;SDS011;11231;50.746;4.272;2023-08-20T04:53:46;14.83;;;3.80;;
22129;SDS011;11231;50.746;4.272;2023-08-20T04:56:12;19.87;;;4.20;;
22129;SDS011;11231;50.746;4.272;2023-08-20T04:58:39;14.57;;;3.43;;
22129;SDS011;11231;50.746;4.272;2023-08-20T05:01:05;14.97;;;3.63;;
22129;SDS011;11231;50.746;4.272;2023-08-20T05:03:32;15.63;;;4.20;;
22129;SDS011;11231;50.746;4.272;2023-08-20T05:05:58;12.63;;;3.37;;
22129;SDS011;11231;50.746;4.272;2023-08-20T05:08:24;15.03;;;3.50;;
22129;SDS011;11231;50.746;4.272;2023-08-20T05:10:50;14.90;;;3.13;;
22129;SDS011;11231;50.746;4.272;2023-08-20T05:13:17;14.83;;;4.03;;
22129;SDS011;11231;50.746;4.272;2023-08-20T05:15:43;14.27;;;3.53;;
22129;SDS011;11231;50.746;4.272;2023-08-20T05:18:10;13.77;;;3.37;;
22129;SDS011;11231;50.746;4.272;2023-08-20T05:20:36;17.93;;;4.17;;
22129;SDS011;11231;50.746;4.272;2023-08-20T05:23:02;12.60;;;3.57;;
22129;SDS011;11231;50.746;4.272;2023-08-20T05:25:30;13.20;;;3.33;;
22129;SDS011;11231;50.746;4.272;2023-08-20T05:27:56;13.90;;;2.90;;
22129;SDS011;11231;50.746;4.272;2023-08-20T05:30:22;10.47;;;2.93;;
22129;SDS011;11231;50.746;4.272;2023-08-20T05:32:48;11.00;;;3.03;;
22129;SDS011;11231;50.746;4.272;2023-08-20T05:35:13;12.57;;;2.53;;
22129;SDS011;11231;50.746;4.272;2023-08-20T05:37:41;12.93;;;2.87;;
22129;SDS011;11231;50.746;4.272;2023-08-20T05:40:07;10.60;;;2.90;;
22129;SDS011;11231;50.746;4.272;2023-08-20T05:42:34;11.93;;;2.87;;
22129;SDS011;11231;50.746;4.272;2023-08-20T05:45:04;9.33;;;2.53;;
22129;SDS011;11231;50.746;4.272;2023-08-20T05:47:31;14.30;;;2.73;;
22129;SDS011;11231;50.746;4.272;2023-08-20T05:49:57;9.27;;;2.30;;
22129;SDS011;11231;50.746;4.272;2023-08-20T05:52:22;10.87;;;2.43;;
22129;SDS011;11231;50.746;4.272;2023-08-20T05:54:48;10.87;;;2.43;;
22129;SDS011;11231;50.746;4.272;2023-08-20T05:57:14;10.67;;;2.40;;
22129;SDS011;11231;50.746;4.272;2023-08-20T05:59:41;11.35;;;2.25;;
22129;SDS011;11231;50.746;4.272;2023-08-20T06:02:06;11.25;;;2.65;;
22129;SDS011;11231;50.746;4.272;2023-08-20T06:04:32;11.45;;;2.60;;
22129;SDS011;11231;50.746;4.272;2023-08-20T06:06:58;11.15;;;2.50;;
22129;SDS011;11231;50.746;4.272;2023-08-20T06:09:24;12.43;;;2.33;;
22129;SDS011;11231;50.746;4.272;2023-08-20T06:11:50;10.30;;;2.70;;
22129;SDS011;11231;50.746;4.272;2023-08-20T06:14:16;10.60;;;2.40;;
22129;SDS011;11231;50.746;4.272;2023-08-20T06:16:42;11.85;;;2.70;;
22129;SDS011;11231;50.746;4.272;2023-08-20T06:19:08;10.48;;;2.65;;
22129;SDS011;11231;50.746;4.272;2023-08-20T06:21:33;9.57;;;2.20;;
22129;SDS011;11231;50.746;4.272;2023-08-20T06:23:59;12.40;;;2.20;;
22129;SDS011;11231;50.746;4.272;2023-08-20T06:26:26;8.95;;;2.30;;
22129;SDS011;11231;50.746;4.272;2023-08-20T06:28:51;9.77;;;2.40;;
22129;SDS011;11231;50.746;4.272;2023-08-20T06:31:17;13.18;;;2.72;;
22129;SDS011;11231;50.746;4.272;2023-08-20T06:33:43;12.38;;;3.15;;
22129;SDS011;11231;50.746;4.272;2023-08-20T06:36:08;12.90;;;2.90;;
22129;SDS011;11231;50.746;4.272;2023-08-20T06:38:34;12.38;;;2.63;;
22129;SDS011;11231;50.746;4.272;2023-08-20T06:41:00;10.20;;;2.65;;
22129;SDS011;11231;50.746;4.272;2023-08-20T06:43:26;10.90;;;2.70;;
22129;SDS011;11231;50.746;4.272;2023-08-20T06:45:51;13.95;;;2.50;;
22129;SDS011;11231;50.746;4.272;2023-08-20T06:48:17;12.05;;;2.13;;
22129;SDS011;11231;50.746;4.272;2023-08-20T06:50:45;10.65;;;2.45;;
22129;SDS011;11231;50.746;4.272;2023-08-20T06:53:10;10.02;;;2.40;;
22129;SDS011;11231;50.746;4.272;2023-08-20T06:55:36;13.38;;;2.95;;
22129;SDS011;11231;50.746;4.272;2023-08-20T06:58:02;12.30;;;3.17;;
22129;SDS011;11231;50.746;4.272;2023-08-20T07:00:27;11.15;;;2.60;;
22129;SDS011;11231;50.746;4.272;2023-08-20T07:02:53;10.13;;;2.85;;
22129;SDS011;11231;50.746;4.272;2023-08-20T07:05:19;13.02;;;2.55;;
22129;SDS011;11231;50.746;4.272;2023-08-20T07:07:45;9.20;;;2.50;;
22129;SDS011;11231;50.746;4.272;2023-08-20T07:10:11;10.23;;;2.10;;
22129;SDS011;11231;50.746;4.272;2023-08-20T07:12:37;9.05;;;1.88;;
22129;SDS011;11231;50.746;4.272;2023-08-20T07:15:04;9.10;;;2.03;;
22129;SDS011;11231;50.746;4.272;2023-08-20T07:17:30;8.82;;;1.83;;
22129;SDS011;11231;50.746;4.272;2023-08-20T07:19:56;5.97;;;1.50;;
22129;SDS011;11231;50.746;4.272;2023-08-20T07:22:22;7.18;;;2.00;;
22129;SDS011;11231;50.746;4.272;2023-08-20T07:24:47;10.25;;;2.15;;
22129;SDS011;11231;50.746;4.272;2023-08-20T07:27:13;11.73;;;2.00;;
22129;SDS011;11231;50.746;4.272;2023-08-20T07:29:40;8.68;;;1.90;;
22129;SDS011;11231;50.746;4.272;2023-08-20T07:32:09;11.75;;;2.08;;
22129;SDS011;11231;50.746;4.272;2023-08-20T07:34:35;7.78;;;1.70;;
22129;SDS011;11231;50.746;4.272;2023-08-20T07:37:01;7.40;;;1.67;;
22129;SDS011;11231;50.746;4.272;2023-08-20T07:39:27;9.50;;;2.20;;
22129;SDS011;11231;50.746;4.272;2023-08-20T07:41:53;6.65;;;1.70;;
22129;SDS011;11231;50.746;4.272;2023-08-20T07:44:19;9.68;;;2.25;;
22129;SDS011;11231;50.746;4.272;2023-08-20T07:46:44;9.23;;;2.13;;
22129;SDS011;11231;50.746;4.272;2023-08-20T07:49:10;9.07;;;1.90;;
22129;SDS011;11231;50.746;4.272;2023-08-20T07:51:36;7.05;;;1.52;;
22129;SDS011;11231;50.746;4.272;2023-08-20T07:54:02;6.70;;;1.40;;
22129;SDS011;11231;50.746;4.272;2023-08-20T07:56:27;5.78;;;1.30;;
22129;SDS011;11231;50.746;4.272;2023-08-20T07:58:53;8.20;;;1.52;;
22129;SDS011;11231;50.746;4.272;2023-08-20T08:01:19;5.20;;;1.27;;
22129;SDS011;11231;50.746;4.272;2023-08-20T08:03:45;6.85;;;1.60;;
22129;SDS011;11231;50.746;4.272;2023-08-20T08:06:10;5.88;;;1.05;;
22129;SDS011;11231;50.746;4.272;2023-08-20T08:08:37;4.32;;;1.00;;
22129;SDS011;11231;50.746;4.272;2023-08-20T08:11:06;4.85;;;1.10;;
22129;SDS011;11231;50.746;4.272;2023-08-20T08:13:32;6.97;;;1.42;;
22129;SDS011;11231;50.746;4.272;2023-08-20T08:15:58;7.93;;;1.52;;
22129;SDS011;11231;50.746;4.272;2023-08-20T08:18:24;5.20;;;1.25;;
22129;SDS011;11231;50.746;4.272;2023-08-20T08:20:49;7.53;;;1.65;;
22129;SDS011;11231;50.746;4.272;2023-08-20T08:23:15;5.35;;;1.15;;
22129;SDS011;11231;50.746;4.272;2023-08-20T08:25:41;7.75;;;1.40;;
22129;SDS011;11231;50.746;4.272;2023-08-20T08:28:07;5.47;;;1.50;;
22129;SDS011;11231;50.746;4.272;2023-08-20T08:30:32;6.18;;;1.30;;
22129;SDS011;11231;50.746;4.272;2023-08-20T08:32:58;5.88;;;1.42;;
22129;SDS011;11231;50.746;4.272;2023-08-20T08:35:24;4.35;;;1.20;;
22129;SDS011;11231;50.746;4.272;2023-08-20T08:37:50;5.75;;;1.13;;
22129;SDS011;11231;50.746;4.272;2023-08-20T08:40:16;5.72;;;1.20;;
22129;SDS011;11231;50.746;4.272;2023-08-20T08:42:41;4.80;;;1.10;;
22129;SDS011;11231;50.746;4.272;2023-08-20T08:45:13;4.32;;;0.82;;
22129;SDS011;11231;50.746;4.272;2023-08-20T08:47:39;4.32;;;0.88;;
22129;SDS011;11231;50.746;4.272;2023-08-20T08:50:05;3.88;;;0.90;;
22129;SDS011;11231;50.746;4.272;2023-08-20T08:52:31;4.70;;;1.02;;
22129;SDS011;11231;50.746;4.272;2023-08-20T08:54:57;5.63;;;1.15;;
22129;SDS011;11231;50.746;4.272;2023-08-20T08:57:23;7.07;;;1.40;;
22129;SDS011;11231;50.746;4.272;2023-08-20T08:59:49;4.63;;;1.05;;
22129;SDS011;11231;50.746;4.272;2023-08-20T09:02:16;6.13;;;1.08;;
22129;SDS011;11231;50.746;4.272;2023-08-20T09:04:43;3.28;;;0.93;;
22129;SDS011;11231;50.746;4.272;2023-08-20T09:07:12;2.97;;;0.98;;
22129;SDS011;11231;50.746;4.272;2023-08-20T09:09:45;4.75;;;1.05;;
22129;SDS011;11231;50.746;4.272;2023-08-20T09:12:18;5.20;;;1.20;;
22129;SDS011;11231;50.746;4.272;2023-08-20T09:14:51;5.43;;;1.20;;
22129;SDS011;11231;50.746;4.272;2023-08-20T09:17:17;4.80;;;1.08;;
22129;SDS011;11231;50.746;4.272;2023-08-20T09:19:44;2.97;;;0.90;;
22129;SDS011;11231;50.746;4.272;2023-08-20T09:22:14;5.03;;;1.02;;
22129;SDS011;11231;50.746;4.272;2023-08-20T09:24:47;5.03;;;1.20;;
22129;SDS011;11231;50.746;4.272;2023-08-20T09:27:17;4.93;;;1.17;;
22129;SDS011;11231;50.746;4.272;2023-08-20T09:29:47;4.47;;;1.05;;
22129;SDS011;11231;50.746;4.272;2023-08-20T09:32:15;3.78;;;1.20;;
22129;SDS011;11231;50.746;4.272;2023-08-20T09:34:49;3.30;;;0.90;;
22129;SDS011;11231;50.746;4.272;2023-08-20T09:37:17;4.97;;;1.30;;
22129;SDS011;11231;50.746;4.272;2023-08-20T09:39:44;4.50;;;1.10;;
22129;SDS011;11231;50.746;4.272;2023-08-20T09:42:11;4.75;;;1.08;;
22129;SDS011;11231;50.746;4.272;2023-08-20T09:44:38;4.05;;;1.20;;
22129;SDS011;11231;50.746;4.272;2023-08-20T09:47:06;4.60;;;1.10;;
22129;SDS011;11231;50.746;4.272;2023-08-20T09:49:43;5.53;;;1.35;;
22129;SDS011;11231;50.746;4.272;2023-08-20T09:52:11;4.15;;;1.05;;
22129;SDS011;11231;50.746;4.272;2023-08-20T09:57:38;4.43;;;1.08;;
22129;SDS011;11231;50.746;4.272;2023-08-20T10:00:05;4.40;;;1.02;;
22129;SDS011;11231;50.746;4.272;2023-08-20T10:02:41;4.75;;;1.33;;
22129;SDS011;11231;50.746;4.272;2023-08-20T10:05:08;3.70;;;1.15;;
22129;SDS011;11231;50.746;4.272;2023-08-20T10:07:35;4.00;;;1.13;;
22129;SDS011;11231;50.746;4.272;2023-08-20T10:10:03;8.65;;;2.22;;
22129;SDS011;11231;50.746;4.272;2023-08-20T10:12:31;18.95;;;11.15;;
22129;SDS011;11231;50.746;4.272;2023-08-20T10:15:00;42.97;;;29.38;;
22129;SDS011;11231;50.746;4.272;2023-08-20T10:17:28;7.10;;;4.18;;
22129;SDS011;11231;50.746;4.272;2023-08-20T10:19:56;7.03;;;3.08;;
22129;SDS011;11231;50.746;4.272;2023-08-20T10:22:31;14.75;;;8.98;;
22129;SDS011;11231;50.746;4.272;2023-08-20T10:25:07;3.92;;;1.15;;
22129;SDS011;11231;50.746;4.272;2023-08-20T10:27:35;5.53;;;1.70;;
22129;SDS011;11231;50.746;4.272;2023-08-20T10:30:02;6.32;;;1.65;;
22129;SDS011;11231;50.746;4.272;2023-08-20T10:32:44;10.35;;;2.97;;
22129;SDS011;11231;50.746;4.272;2023-08-20T10:35:23;5.97;;;2.05;;
22129;SDS011;11231;50.746;4.272;2023-08-20T10:38:07;5.35;;;1.45;;
22129;SDS011;11231;50.746;4.272;2023-08-20T10:40:46;5.72;;;1.20;;
22129;SDS011;11231;50.746;4.272;2023-08-20T10:43:39;5.05;;;1.52;;
22129;SDS011;11231;50.746;4.272;2023-08-20T10:48:47;4.30;;;0.93;;
22129;SDS011;11231;50.746;4.272;2023-08-20T10:51:24;7.10;;;1.25;;
22129;SDS011;11231;50.746;4.272;2023-08-20T10:56:39;4.90;;;1.35;;
22129;SDS011;11231;50.746;4.272;2023-08-20T10:59:07;7.80;;;1.65;;
22129;SDS011;11231;50.746;4.272;2023-08-20T11:01:50;6.47;;;1.70;;
22129;SDS011;11231;50.746;4.272;2023-08-20T11:04:18;4.63;;;1.30;;
22129;SDS011;11231;50.746;4.272;2023-08-20T11:06:45;4.45;;;1.10;;
22129;SDS011;11231;50.746;4.272;2023-08-20T11:09:14;5.53;;;1.42;;
22129;SDS011;11231;50.746;4.272;2023-08-20T11:11:40;3.65;;;1.05;;
22129;SDS011;11231;50.746;4.272;2023-08-20T11:14:07;4.32;;;1.20;;
22129;SDS011;11231;50.746;4.272;2023-08-20T11:16:40;6.40;;;2.15;;
22129;SDS011;11231;50.746;4.272;2023-08-20T11:19:08;3.65;;;0.98;;
22129;SDS011;11231;50.746;4.272;2023-08-20T11:21:34;4.13;;;1.40;;
22129;SDS011;11231;50.746;4.272;2023-08-20T11:24:00;4.95;;;1.20;;
22129;SDS011;11231;50.746;4.272;2023-08-20T11:26:27;5.68;;;1.67;;
22129;SDS011;11231;50.746;4.272;2023-08-20T11:28:52;5.50;;;2.00;;
22129;SDS011;11231;50.746;4.272;2023-08-20T11:31:18;4.45;;;1.80;;
22129;SDS011;11231;50.746;4.272;2023-08-20T11:33:44;4.45;;;1.00;;
22129;SDS011;11231;50.746;4.272;2023-08-20T11:36:16;4.43;;;1.27;;
22129;SDS011;11231;50.746;4.272;2023-08-20T11:38:49;4.90;;;1.13;;
22129;SDS011;11231;50.746;4.272;2023-08-20T11:41:19;5.88;;;1.23;;
22129;SDS011;11231;50.746;4.272;2023-08-20T11:43:46;3.60;;;0.95;;
22129;SDS011;11231;50.746;4.272;2023-08-20T11:46:13;4.90;;;1.10;;
22129;SDS011;11231;50.746;4.272;2023-08-20T11:49:00;4.65;;;1.08;;
22129;SDS011;11231;50.746;4.272;2023-08-20T11:51:34;5.30;;;1.10;;
22129;SDS011;11231;50.746;4.272;2023-08-20T11:54:13;3.55;;;0.90;;
22129;SDS011;11231;50.746;4.272;2023-08-20T11:56:47;4.30;;;0.98;;
22129;SDS011;11231;50.746;4.272;2023-08-20T11:59:17;4.13;;;1.05;;
22129;SDS011;11231;50.746;4.272;2023-08-20T12:01:51;4.20;;;1.13;;
22129;SDS011;11231;50.746;4.272;2023-08-20T12:04:17;5.82;;;1.33;;
22129;SDS011;11231;50.746;4.272;2023-08-20T12:06:43;5.15;;;1.58;;
22129;SDS011;11231;50.746;4.272;2023-08-20T12:09:20;4.80;;;1.10;;
22129;SDS011;11231;50.746;4.272;2023-08-20T12:11:50;5.90;;;1.30;;
22129;SDS011;11231;50.746;4.272;2023-08-20T12:14:21;3.40;;;0.98;;
22129;SDS011;11231;50.746;4.272;2023-08-20T12:16:47;3.08;;;1.10;;
22129;SDS011;11231;50.746;4.272;2023-08-20T12:19:13;4.68;;;1.02;;
22129;SDS011;11231;50.746;4.272;2023-08-20T12:21:40;7.72;;;2.65;;
22129;SDS011;11231;50.746;4.272;2023-08-20T12:24:08;9.80;;;3.72;;
22129;SDS011;11231;50.746;4.272;2023-08-20T12:26:34;5.18;;;2.03;;
22129;SDS011;11231;50.746;4.272;2023-08-20T12:29:01;7.50;;;2.30;;
22129;SDS011;11231;50.746;4.272;2023-08-20T12:31:27;13.32;;;7.25;;
22129;SDS011;11231;50.746;4.272;2023-08-20T12:33:52;4.45;;;1.40;;
22129;SDS011;11231;50.746;4.272;2023-08-20T12:36:18;6.57;;;1.50;;
22129;SDS011;11231;50.746;4.272;2023-08-20T12:38:44;6.78;;;1.60;;
22129;SDS011;11231;50.746;4.272;2023-08-20T12:41:09;6.63;;;1.70;;
22129;SDS011;11231;50.746;4.272;2023-08-20T12:43:36;8.35;;;2.00;;
22129;SDS011;11231;50.746;4.272;2023-08-20T12:46:02;7.43;;;3.33;;
22129;SDS011;11231;50.746;4.272;2023-08-20T12:48:28;9.82;;;4.07;;
22129;SDS011;11231;50.746;4.272;2023-08-20T12:50:55;5.60;;;1.40;;
22129;SDS011;11231;50.746;4.272;2023-08-20T12:53:21;5.07;;;1.10;;
22129;SDS011;11231;50.746;4.272;2023-08-20T12:55:47;7.85;;;3.15;;
22129;SDS011;11231;50.746;4.272;2023-08-20T12:58:12;8.95;;;3.20;;
22129;SDS011;11231;50.746;4.272;2023-08-20T13:00:38;6.18;;;1.50;;
22129;SDS011;11231;50.746;4.272;2023-08-20T13:03:04;6.35;;;1.65;;
22129;SDS011;11231;50.746;4.272;2023-08-20T13:05:30;6.97;;;1.40;;
22129;SDS011;11231;50.746;4.272;2023-08-20T13:07:57;7.22;;;1.50;;
22129;SDS011;11231;50.746;4.272;2023-08-20T13:10:26;4.78;;;1.05;;
22129;SDS011;11231;50.746;4.272;2023-08-20T13:12:52;5.75;;;1.40;;
22129;SDS011;11231;50.746;4.272;2023-08-20T13:15:21;9.70;;;1.80;;
22129;SDS011;11231;50.746;4.272;2023-08-20T13:17:48;4.93;;;1.25;;
22129;SDS011;11231;50.746;4.272;2023-08-20T13:20:15;7.57;;;1.38;;
22129;SDS011;11231;50.746;4.272;2023-08-20T13:22:46;5.63;;;1.25;;
22129;SDS011;11231;50.746;4.272;2023-08-20T13:25:13;5.45;;;1.33;;
22129;SDS011;11231;50.746;4.272;2023-08-20T13:27:40;6.28;;;1.30;;
22129;SDS011;11231;50.746;4.272;2023-08-20T13:30:06;6.65;;;1.55;;
22129;SDS011;11231;50.746;4.272;2023-08-20T13:32:33;6.75;;;1.63;;
22129;SDS011;11231;50.746;4.272;2023-08-20T13:35:00;4.70;;;1.30;;
22129;SDS011;11231;50.746;4.272;2023-08-20T13:37:26;5.22;;;1.45;;
22129;SDS011;11231;50.746;4.272;2023-08-20T13:39:52;5.65;;;1.50;;
22129;SDS011;11231;50.746;4.272;2023-08-20T13:42:18;5.78;;;1.30;;
22129;SDS011;11231;50.746;4.272;2023-08-20T13:44:44;7.72;;;1.45;;
22129;SDS011;11231;50.746;4.272;2023-08-20T13:47:09;7.18;;;1.50;;
22129;SDS011;11231;50.746;4.272;2023-08-20T13:49:36;6.15;;;1.75;;
22129;SDS011;11231;50.746;4.272;2023-08-20T13:52:01;7.55;;;2.22;;
22129;SDS011;11231;50.746;4.272;2023-08-20T13:54:27;6.18;;;1.40;;
22129;SDS011;11231;50.746;4.272;2023-08-20T13:56:53;4.68;;;1.40;;
22129;SDS011;11231;50.746;4.272;2023-08-20T13:59:19;6.30;;;1.40;;
22129;SDS011;11231;50.746;4.272;2023-08-20T14:01:45;9.35;;;2.30;;
22129;SDS011;11231;50.746;4.272;2023-08-20T14:04:10;7.05;;;2.00;;
22129;SDS011;11231;50.746;4.272;2023-08-20T14:06:36;6.28;;;1.70;;
22129;SDS011;11231;50.746;4.272;2023-08-20T14:09:02;7.65;;;1.80;;
22129;SDS011;11231;50.746;4.272;2023-08-20T14:11:30;9.30;;;1.85;;
22129;SDS011;11231;50.746;4.272;2023-08-20T14:13:55;5.75;;;1.30;;
22129;SDS011;11231;50.746;4.272;2023-08-20T14:16:21;7.50;;;1.60;;
22129;SDS011;11231;50.746;4.272;2023-08-20T14:18:47;6.53;;;1.40;;
22129;SDS011;11231;50.746;4.272;2023-08-20T14:21:13;5.05;;;1.20;;
22129;SDS011;11231;50.746;4.272;2023-08-20T14:23:38;4.95;;;1.30;;
22129;SDS011;11231;50.746;4.272;2023-08-20T14:26:05;5.60;;;1.25;;
22129;SDS011;11231;50.746;4.272;2023-08-20T14:28:32;6.32;;;1.42;;
22129;SDS011;11231;50.746;4.272;2023-08-20T14:31:01;5.93;;;1.40;;
22129;SDS011;11231;50.746;4.272;2023-08-20T14:33:28;5.65;;;1.30;;
22129;SDS011;11231;50.746;4.272;2023-08-20T14:35:55;7.28;;;1.40;;
22129;SDS011;11231;50.746;4.272;2023-08-20T14:38:21;4.82;;;1.27;;
22129;SDS011;11231;50.746;4.272;2023-08-20T14:40:47;6.55;;;1.10;;
22129;SDS011;11231;50.746;4.272;2023-08-20T14:43:12;6.43;;;1.80;;
22129;SDS011;11231;50.746;4.272;2023-08-20T14:45:38;6.57;;;1.27;;
22129;SDS011;11231;50.746;4.272;2023-08-20T14:48:04;5.93;;;1.60;;
22129;SDS011;11231;50.746;4.272;2023-08-20T14:50:30;7.95;;;1.63;;
22129;SDS011;11231;50.746;4.272;2023-08-20T14:52:56;7.30;;;1.52;;
22129;SDS011;11231;50.746;4.272;2023-08-20T14:55:22;6.30;;;1.45;;
22129;SDS011;11231;50.746;4.272;2023-08-20T14:57:48;6.68;;;1.58;;
22129;SDS011;11231;50.746;4.272;2023-08-20T15:00:14;7.00;;;1.38;;
22129;SDS011;11231;50.746;4.272;2023-08-20T15:02:40;5.75;;;1.55;;